createdAt,value
2022-09-01T00:00:09.191Z,0.63
2022-09-01T00:02:35.898Z,0.65
2022-09-01T00:05:08.746Z,0.80
2022-09-01T00:07:35.468Z,0.77
2022-09-01T00:10:06.098Z,0.82
2022-09-01T00:12:32.810Z,0.80
2022-09-01T00:14:59.586Z,0.80
2022-09-01T00:17:26.823Z,0.77
2022-09-01T00:19:55.426Z,0.93
2022-09-01T00:22:22.211Z,0.93
2022-09-01T00:24:48.904Z,0.90
2022-09-01T00:27:15.595Z,0.98
2022-09-01T00:29:43.958Z,1.55
2022-09-01T00:32:11.798Z,1.10
2022-09-01T00:34:40.714Z,1.13
2022-09-01T00:37:10.643Z,1.00
2022-09-01T00:39:37.481Z,0.90
2022-09-01T00:42:04.712Z,0.85
2022-09-01T00:44:31.895Z,0.95
2022-09-01T00:46:59.696Z,0.90
2022-09-01T00:49:45.087Z,0.80
2022-09-01T00:52:35.366Z,1.00
2022-09-01T00:55:12.366Z,0.70
2022-09-01T00:57:42.921Z,0.80
2022-09-01T01:00:20.275Z,0.80
2022-09-01T01:02:56.168Z,0.80
2022-09-01T01:05:28.028Z,0.88
2022-09-01T01:07:56.044Z,0.75
2022-09-01T01:10:24.304Z,0.73
2022-09-01T01:12:52.231Z,0.90
2022-09-01T01:15:20.127Z,0.80
2022-09-01T01:17:50.097Z,0.90
2022-09-01T01:20:35.832Z,0.80
2022-09-01T01:23:17.661Z,0.98
2022-09-01T01:25:47.122Z,1.00
2022-09-01T01:30:52.475Z,0.75
2022-09-01T01:33:26.863Z,0.80
2022-09-01T01:35:57.664Z,0.90
2022-09-01T01:38:26.853Z,1.00
2022-09-01T01:40:54.954Z,0.80
2022-09-01T01:43:23.252Z,0.85
2022-09-01T01:45:52.789Z,0.70
2022-09-01T01:48:23.061Z,0.90
2022-09-01T01:50:53.793Z,1.02
2022-09-01T01:53:21.320Z,0.70
2022-09-01T01:55:49.954Z,1.30
2022-09-01T01:58:19.896Z,0.77
2022-09-01T02:00:48.624Z,0.77
2022-09-01T02:03:19.142Z,0.85
2022-09-01T02:05:50.510Z,0.90
2022-09-01T02:08:20.994Z,0.85
2022-09-01T02:10:50.082Z,0.93
2022-09-01T02:13:21.001Z,1.00
2022-09-01T02:15:50.300Z,0.70
2022-09-01T02:18:23.910Z,0.70
2022-09-01T02:20:51.997Z,0.80
2022-09-01T02:23:23.475Z,0.93
2022-09-01T02:26:15.094Z,0.90
2022-09-01T02:28:42.694Z,0.70
2022-09-01T02:31:11.698Z,0.80
2022-09-01T02:33:40.167Z,0.60
2022-09-01T02:36:10.194Z,0.85
2022-09-01T02:38:36.814Z,0.60
2022-09-01T02:41:06.175Z,0.77
2022-09-01T02:43:33.891Z,0.70
2022-09-01T02:46:02.239Z,0.60
2022-09-01T02:48:37.304Z,0.70
2022-09-01T02:51:10.943Z,0.73
2022-09-01T02:53:39.453Z,0.60
2022-09-01T02:56:11.262Z,0.70
2022-09-01T02:58:45.877Z,0.70
2022-09-01T03:01:20.568Z,0.60
2022-09-01T03:03:48.926Z,0.75
2022-09-01T03:06:18.485Z,0.70
2022-09-01T03:08:45.398Z,1.02
2022-09-01T03:11:13.296Z,0.70
2022-09-01T03:13:40.997Z,0.75
2022-09-01T03:16:08.243Z,0.73
2022-09-01T03:18:35.381Z,0.80
2022-09-01T03:21:02.568Z,0.90
2022-09-01T03:23:31.407Z,0.80
2022-09-01T03:25:58.463Z,0.90
2022-09-01T03:28:25.193Z,1.00
2022-09-01T03:30:54.389Z,0.90
2022-09-01T03:33:22.500Z,1.10
2022-09-01T03:35:49.373Z,1.00
2022-09-01T03:38:24.369Z,0.90
2022-09-01T03:40:59.084Z,1.10
2022-09-01T03:43:27.680Z,0.80
2022-09-01T03:46:02.383Z,0.82
2022-09-01T03:48:29.867Z,0.82
2022-09-01T03:51:02.856Z,0.80
2022-09-01T03:53:32.559Z,0.88
2022-09-01T03:56:00.161Z,0.80
2022-09-01T03:58:27.299Z,1.10
2022-09-01T04:00:56.579Z,1.00
2022-09-01T04:03:28.899Z,0.90
2022-09-01T04:05:56.307Z,1.00
2022-09-01T04:08:27.582Z,0.98
2022-09-01T04:11:03.961Z,1.00
2022-09-01T04:13:35.836Z,0.95
2022-09-01T04:16:02.903Z,1.00
2022-09-01T04:18:30.640Z,0.88
2022-09-01T04:20:59.534Z,1.00
2022-09-01T04:23:33.575Z,0.82
2022-09-01T04:26:09.159Z,1.00
2022-09-01T04:28:40.492Z,0.90
2022-09-01T04:31:09.347Z,1.20
2022-09-01T04:33:39.919Z,0.70
2022-09-01T04:36:15.171Z,0.82
2022-09-01T04:38:41.802Z,0.90
2022-09-01T04:41:09.491Z,1.10
2022-09-01T04:43:36.226Z,0.77
2022-09-01T04:46:03.364Z,0.80
2022-09-01T04:48:31.821Z,0.73
2022-09-01T04:50:59.517Z,0.95
2022-09-01T04:53:27.664Z,1.10
2022-09-01T04:55:55.483Z,0.63
2022-09-01T04:58:22.600Z,0.88
2022-09-01T05:00:52.410Z,0.73
2022-09-01T05:03:24.232Z,0.90
2022-09-01T05:05:51.325Z,0.60
2022-09-01T05:08:23.375Z,0.75
2022-09-01T05:10:55.817Z,0.80
2022-09-01T05:13:23.638Z,0.70
2022-09-01T05:16:02.068Z,0.75
2022-09-01T05:18:29.447Z,0.80
2022-09-01T05:20:57.583Z,0.60
2022-09-01T05:23:27.871Z,0.80
2022-09-01T05:25:55.710Z,1.17
2022-09-01T05:28:25.718Z,1.10
2022-09-01T05:30:57.363Z,1.50
2022-09-01T05:33:24.682Z,1.30
2022-09-01T05:36:03.266Z,1.50
2022-09-01T05:38:31.407Z,1.80
2022-09-01T05:41:02.133Z,1.70
2022-09-01T05:43:30.869Z,1.40
2022-09-01T05:46:06.616Z,1.10
2022-09-01T05:48:39.983Z,1.63
2022-09-01T05:51:17.854Z,1.27
2022-09-01T05:53:56.663Z,1.10
2022-09-01T05:56:24.526Z,0.75
2022-09-01T06:01:41.373Z,1.00
2022-09-01T06:04:10.356Z,0.80
2022-09-01T06:06:55.074Z,0.60
2022-09-01T06:09:25.700Z,0.80
2022-09-01T06:11:52.962Z,0.90
2022-09-01T06:14:20.567Z,0.90
2022-09-01T06:16:47.603Z,0.90
2022-09-01T06:19:14.262Z,0.98
2022-09-01T06:21:40.859Z,0.98
2022-09-01T06:24:08.069Z,0.80
2022-09-01T06:26:36.710Z,0.90
2022-09-01T06:29:07.139Z,0.80
2022-09-01T06:31:39.401Z,0.95
2022-09-01T06:34:08.852Z,1.00
2022-09-01T06:36:40.507Z,1.00
2022-09-01T06:39:08.316Z,1.20
2022-09-01T06:41:37.589Z,0.85
2022-09-01T06:44:04.421Z,0.90
2022-09-01T06:46:31.963Z,0.70
2022-09-01T06:48:59.185Z,0.73
2022-09-01T06:51:29.376Z,0.70
2022-09-01T06:53:57.137Z,0.90
2022-09-01T06:56:26.952Z,1.00
2022-09-01T06:58:58.822Z,0.80
2022-09-01T07:01:27.707Z,1.10
2022-09-01T07:03:57.085Z,1.27
2022-09-01T07:09:20.307Z,1.50
2022-09-01T07:14:33.675Z,1.92
2022-09-01T07:22:36.947Z,1.42
2022-09-01T07:25:13.511Z,1.13
2022-09-01T07:27:41.606Z,1.17
2022-09-01T07:30:09.583Z,1.30
2022-09-01T07:32:43.717Z,1.23
2022-09-01T07:35:22.541Z,1.20
2022-09-01T07:38:48.515Z,0.80
2022-09-01T07:42:56.421Z,1.50
2022-09-01T07:43:29.795Z,0.70
2022-09-01T07:46:00.570Z,0.90
2022-09-01T07:51:36.752Z,0.80
2022-09-01T07:54:04.015Z,0.90
2022-09-01T07:56:30.991Z,0.70
2022-09-01T07:58:58.673Z,0.60
2022-09-01T08:01:27.465Z,0.70
2022-09-01T08:03:57.576Z,0.70
2022-09-01T08:06:27.303Z,0.50
2022-09-01T08:08:57.343Z,0.63
2022-09-01T08:11:58.229Z,0.60
2022-09-01T08:14:18.137Z,0.50
2022-09-01T08:16:53.136Z,0.40
2022-09-01T08:19:20.052Z,0.70
2022-09-01T08:21:46.656Z,0.73
2022-09-01T08:24:14.341Z,0.60
2022-09-01T08:26:41.252Z,0.57
2022-09-01T08:29:07.927Z,0.60
2022-09-01T08:31:36.231Z,0.50
2022-09-01T08:34:05.476Z,0.60
2022-09-01T08:36:32.499Z,0.50
2022-09-01T08:38:59.091Z,0.50
2022-09-01T08:41:54.323Z,0.63
2022-09-01T08:44:42.208Z,0.70
2022-09-01T08:47:13.898Z,0.52
2022-09-01T08:49:46.167Z,0.57
2022-09-01T08:52:23.090Z,0.55
2022-09-01T08:55:06.623Z,0.57
2022-09-01T08:57:35.220Z,0.50
2022-09-01T09:00:02.296Z,0.40
2022-09-01T09:02:51.831Z,0.55
2022-09-01T09:05:49.051Z,0.50
2022-09-01T09:08:51.575Z,0.50
2022-09-01T09:11:23.726Z,0.50
2022-09-01T09:14:12.513Z,0.55
2022-09-01T09:16:43.979Z,0.60
2022-09-01T09:19:41.825Z,0.63
2022-09-01T09:22:14.801Z,0.40
2022-09-01T09:24:47.447Z,0.43
2022-09-01T09:27:19.201Z,0.50
2022-09-01T09:29:47.598Z,0.60
2022-09-01T09:32:50.417Z,0.50
2022-09-01T09:35:24.512Z,0.50
2022-09-01T09:37:51.141Z,0.88
2022-09-01T09:40:21.424Z,0.60
2022-09-01T09:42:54.166Z,0.50
2022-09-01T09:45:42.036Z,0.50
2022-09-01T09:48:25.930Z,0.50
2022-09-01T09:50:52.866Z,0.50
2022-09-01T09:53:30.449Z,0.80
2022-09-01T09:56:03.632Z,0.50
2022-09-01T09:58:39.514Z,0.60
2022-09-01T10:01:28.914Z,0.63
2022-09-01T10:04:00.542Z,0.60
2022-09-01T10:06:30.423Z,0.65
2022-09-01T10:08:58.707Z,0.55
2022-09-01T10:11:35.699Z,0.60
2022-09-01T10:14:06.071Z,0.40
2022-09-01T10:16:35.189Z,0.68
2022-09-01T10:21:37.832Z,0.60
2022-09-01T10:24:22.338Z,0.70
2022-09-01T10:26:55.869Z,0.70
2022-09-01T10:29:27.337Z,0.50
2022-09-01T10:32:14.853Z,0.60
2022-09-01T10:34:42.257Z,0.65
2022-09-01T10:37:11.191Z,0.80
2022-09-01T10:40:13.379Z,0.70
2022-09-01T10:42:45.290Z,0.60
2022-09-01T10:45:30.314Z,0.60
2022-09-01T10:48:32.127Z,0.60
2022-09-01T10:51:18.701Z,0.57
2022-09-01T10:53:47.052Z,0.55
2022-09-01T10:56:28.478Z,0.63
2022-09-01T11:02:23.084Z,0.50
2022-09-01T11:04:41.040Z,0.93
2022-09-01T11:07:33.502Z,0.65
2022-09-01T11:10:11.811Z,0.50
2022-09-01T11:12:41.951Z,0.60
2022-09-01T11:15:14.713Z,0.60
2022-09-01T11:18:09.340Z,0.60
2022-09-01T11:20:40.949Z,0.60
2022-09-01T11:23:28.045Z,0.60
2022-09-01T11:28:46.176Z,0.50
2022-09-01T11:31:40.978Z,0.65
2022-09-01T11:34:15.780Z,0.80
2022-09-01T11:36:47.258Z,0.80
2022-09-01T11:39:18.045Z,0.70
2022-09-01T11:41:45.861Z,0.50
2022-09-01T11:44:22.041Z,0.60
2022-09-01T11:46:49.618Z,0.70
2022-09-01T11:49:33.032Z,0.63
2022-09-01T11:52:01.205Z,0.80
2022-09-01T11:54:31.274Z,0.60
2022-09-01T11:56:57.867Z,0.70
2022-09-01T11:59:37.840Z,0.60
2022-09-01T12:02:05.364Z,0.70
2022-09-01T12:04:36.362Z,0.60
2022-09-01T12:07:10.800Z,0.70
2022-09-01T12:09:48.251Z,0.70
2022-09-01T12:12:35.173Z,0.50
2022-09-01T12:15:10.656Z,0.70
2022-09-01T12:17:40.376Z,0.60
2022-09-01T12:20:39.833Z,0.60
2022-09-01T12:23:25.750Z,0.80
2022-09-01T12:25:57.317Z,0.82
2022-09-01T12:28:25.074Z,0.77
2022-09-01T12:30:53.696Z,1.00
2022-09-01T12:33:23.860Z,0.73
2022-09-01T12:35:59.569Z,0.60
2022-09-01T12:38:29.788Z,0.70
2022-09-01T12:40:57.452Z,0.70
2022-09-01T12:43:32.582Z,0.70
2022-09-01T12:46:02.947Z,0.73
2022-09-01T12:48:34.639Z,0.70
2022-09-01T12:51:25.494Z,0.80
2022-09-01T12:53:58.590Z,0.70
2022-09-01T12:56:31.419Z,0.80
2022-09-01T12:59:35.789Z,0.90
2022-09-01T13:02:36.861Z,0.60
2022-09-01T13:05:28.484Z,0.75
2022-09-01T13:08:07.621Z,0.70
2022-09-01T13:10:44.914Z,0.70
2022-09-01T13:13:12.953Z,0.80
2022-09-01T13:15:48.309Z,0.80
2022-09-01T13:18:15.563Z,0.60
2022-09-01T13:20:42.384Z,0.60
2022-09-01T14:24:59.687Z,0.73
2022-09-01T14:29:54.799Z,0.77
2022-09-01T14:32:27.047Z,0.70
2022-09-01T14:34:55.062Z,0.90
2022-09-01T14:37:22.028Z,0.70
2022-09-01T14:39:56.735Z,0.70
2022-09-01T14:42:25.828Z,0.73
2022-09-01T14:44:52.874Z,0.70
2022-09-01T14:47:27.598Z,0.70
2022-09-01T14:50:04.405Z,0.70
2022-09-01T14:52:31.440Z,0.60
2022-09-01T14:55:00.953Z,0.82
2022-09-01T14:57:36.833Z,0.95
2022-09-01T15:00:24.527Z,1.00
2022-09-01T15:05:29.079Z,0.60
2022-09-01T15:08:17.868Z,0.47
2022-09-01T15:26:12.266Z,0.60
2022-09-01T15:28:40.154Z,0.70
2022-09-01T15:31:07.198Z,0.63
2022-09-01T15:33:44.507Z,0.70
2022-09-01T15:36:35.540Z,0.70
2022-09-01T15:39:50.615Z,0.68
2022-09-01T15:53:33.525Z,0.52
2022-09-01T16:28:01.144Z,0.60
2022-09-01T16:33:21.887Z,0.80
2022-09-01T16:36:31.714Z,1.23
2022-09-01T16:39:25.609Z,0.68
2022-09-01T16:42:03.967Z,0.60
2022-09-01T16:44:42.730Z,0.70
2022-09-01T16:47:54.415Z,0.60
2022-09-01T16:50:55.424Z,0.80
2022-09-01T16:53:28.408Z,0.60
2022-09-01T16:55:58.565Z,0.52
2022-09-01T16:58:44.531Z,0.60
2022-09-01T17:01:23.188Z,0.68
2022-09-01T17:07:06.344Z,0.70
2022-09-01T17:09:42.398Z,0.70
2022-09-01T17:12:26.656Z,0.50
2022-09-01T17:14:59.691Z,0.80
2022-09-01T17:17:38.091Z,0.70
2022-09-01T17:20:05.959Z,0.60
2022-09-01T17:22:34.162Z,0.60
2022-09-01T17:25:07.833Z,0.80
2022-09-01T17:28:00.398Z,0.75
2022-09-01T17:30:27.308Z,0.65
2022-09-01T17:33:27.933Z,0.70
2022-09-01T17:36:18.647Z,0.70
2022-09-01T17:39:01.046Z,0.70
2022-09-01T17:41:52.778Z,0.70
2022-09-01T17:44:41.136Z,0.60
2022-09-01T17:47:17.704Z,0.80
2022-09-01T17:50:15.274Z,0.60
2022-09-01T17:52:53.129Z,0.70
2022-09-01T17:55:46.066Z,0.80
2022-09-01T17:58:39.602Z,1.10
2022-09-01T18:01:18.207Z,0.95
2022-09-01T18:03:52.777Z,0.93
2022-09-01T18:06:36.961Z,1.08
2022-09-01T18:09:04.247Z,1.10
2022-09-01T18:11:42.657Z,1.00
2022-09-01T18:19:09.560Z,1.05
2022-09-01T18:21:48.875Z,1.05
2022-09-01T18:24:25.358Z,0.98
2022-09-01T18:27:57.609Z,1.42
2022-09-01T18:30:42.807Z,1.58
2022-09-01T18:33:32.985Z,1.10
2022-09-01T18:36:32.845Z,1.10
2022-09-01T18:39:29.978Z,1.20
2022-09-01T18:42:36.058Z,1.20
2022-09-01T18:49:04.762Z,1.30
2022-09-01T18:52:08.845Z,1.30
2022-09-01T18:54:50.652Z,1.20
2022-09-01T18:57:24.544Z,1.20
2022-09-01T19:00:01.026Z,1.13
2022-09-01T19:02:37.616Z,1.10
2022-09-01T19:05:43.062Z,0.90
2022-09-01T19:08:40.230Z,0.95
2022-09-01T19:11:31.895Z,1.00
2022-09-01T19:14:10.908Z,1.00
2022-09-01T19:16:54.297Z,0.80
2022-09-01T19:19:36.550Z,0.90
2022-09-01T19:22:03.578Z,0.90
2022-09-01T19:24:38.668Z,1.08
2022-09-01T19:27:11.660Z,0.82
2022-09-01T19:29:45.922Z,0.90
2022-09-01T19:32:18.353Z,1.00
2022-09-01T19:35:11.802Z,0.90
2022-09-01T19:37:40.255Z,0.90
2022-09-01T19:40:08.563Z,1.00
2022-09-01T19:42:59.471Z,0.97
2022-09-01T19:45:33.186Z,1.00
2022-09-01T19:48:16.102Z,1.17
2022-09-01T19:50:54.969Z,1.40
2022-09-01T19:53:31.385Z,1.40
2022-09-01T19:56:06.127Z,0.75
2022-09-01T19:58:44.567Z,0.90
2022-09-01T20:01:15.381Z,0.80
2022-09-01T20:03:48.598Z,1.08
2022-09-01T20:06:32.178Z,1.00
2022-09-01T20:09:05.860Z,0.88
2022-09-01T20:11:41.515Z,0.90
2022-09-01T20:14:14.225Z,1.00
2022-09-01T20:16:45.762Z,0.85
2022-09-01T20:19:49.029Z,0.80
2022-09-01T20:22:40.493Z,0.85
2022-09-01T20:25:10.247Z,1.08
2022-09-01T20:27:48.325Z,0.95
2022-09-01T20:30:22.975Z,1.00
2022-09-01T20:33:07.916Z,1.10
2022-09-01T20:35:45.049Z,0.90
2022-09-01T20:39:14.910Z,0.85
2022-09-01T20:41:56.797Z,1.02
2022-09-01T20:44:46.545Z,0.90
2022-09-01T20:47:13.184Z,0.82
2022-09-01T20:49:39.979Z,1.10
2022-09-01T20:52:21.262Z,1.25
2022-09-01T20:55:04.774Z,0.90
2022-09-01T20:58:03.874Z,0.95
2022-09-01T21:00:36.744Z,1.27
2022-09-01T21:03:33.911Z,0.85
2022-09-01T21:06:38.077Z,0.90
2022-09-01T21:09:14.196Z,0.80
2022-09-01T21:11:42.635Z,1.10
2022-09-01T21:14:32.775Z,1.02
2022-09-01T21:17:13.925Z,1.00
2022-09-01T21:19:49.860Z,1.23
2022-09-01T21:22:21.650Z,1.08
2022-09-01T21:24:49.044Z,1.23
2022-09-01T21:27:23.004Z,1.10
2022-09-01T21:29:58.521Z,1.33
2022-09-01T21:32:27.175Z,1.40
2022-09-01T21:34:54.155Z,1.30
2022-09-01T21:37:22.535Z,1.35
2022-09-01T21:39:54.087Z,1.25
2022-09-01T21:42:47.434Z,1.30
2022-09-01T21:45:15.612Z,1.40
2022-09-01T21:47:43.416Z,1.33
2022-09-01T21:50:11.406Z,1.40
2022-09-01T21:52:38.197Z,1.63
2022-09-01T21:55:06.076Z,1.65
2022-09-01T21:57:33.659Z,1.63
2022-09-01T22:00:01.817Z,1.40
2022-09-01T22:02:28.818Z,1.70
2022-09-01T22:04:56.250Z,1.85
2022-09-01T22:07:22.880Z,1.60
2022-09-01T22:09:49.943Z,1.70
2022-09-01T22:12:16.511Z,1.88
2022-09-01T22:14:43.084Z,1.90
2022-09-01T22:17:09.745Z,2.08
2022-09-01T22:19:36.824Z,1.92
2022-09-01T22:22:04.170Z,2.00
2022-09-01T22:24:30.830Z,1.90
2022-09-01T22:26:57.487Z,1.80
2022-09-01T22:29:25.157Z,1.75
2022-09-01T22:31:52.027Z,2.08
2022-09-01T22:34:18.685Z,2.05
2022-09-01T22:36:47.859Z,2.00
2022-09-01T22:39:16.018Z,1.90
2022-09-01T22:41:42.775Z,2.75
2022-09-01T22:44:09.996Z,2.03
2022-09-01T22:46:37.759Z,1.63
2022-09-01T22:49:05.112Z,1.73
2022-09-01T22:51:32.316Z,2.45
2022-09-01T22:53:59.046Z,1.90
2022-09-01T22:56:30.296Z,1.63
2022-09-01T22:58:58.856Z,1.70
2022-09-01T23:01:27.536Z,1.90
2022-09-01T23:03:58.816Z,1.67
2022-09-01T23:06:28.156Z,1.50
2022-09-01T23:11:22.255Z,1.80
2022-09-01T23:13:48.890Z,1.45
2022-09-01T23:16:16.149Z,2.00
2022-09-01T23:18:44.860Z,1.63
2022-09-01T23:21:14.550Z,1.42
2022-09-01T23:26:10.978Z,1.60
2022-09-01T23:28:40.637Z,1.40
2022-09-01T23:31:09.347Z,1.40
2022-09-01T23:33:36.679Z,1.40
2022-09-01T23:36:06.704Z,1.63
2022-09-01T23:38:33.270Z,1.50
2022-09-01T23:41:00.231Z,1.50
2022-09-01T23:43:27.514Z,1.42
2022-09-01T23:45:56.312Z,1.42
2022-09-01T23:48:24.459Z,1.48
2022-09-01T23:50:54.398Z,1.42
2022-09-01T23:53:25.936Z,1.65
2022-09-01T23:55:54.334Z,1.30
2022-09-01T23:58:22.492Z,1.33
